sensor_id;sensor_type;location;lat;lon;timestamp;P1;durP1;ratioP1;P2;durP2;ratioP2
13445;SDS011;6795;51.232;3.764;2023-05-01T00:00:31;3.15;;;2.60;;
13445;SDS011;6795;51.232;3.764;2023-05-01T00:03:00;3.60;;;3.30;;
13445;SDS011;6795;51.232;3.764;2023-05-01T00:05:29;5.47;;;3.45;;
13445;SDS011;6795;51.232;3.764;2023-05-01T00:07:57;3.28;;;2.70;;
13445;SDS011;6795;51.232;3.764;2023-05-01T00:10:25;3.35;;;3.17;;
13445;SDS011;6795;51.232;3.764;2023-05-01T00:12:55;7.60;;;3.38;;
13445;SDS011;6795;51.232;3.764;2023-05-01T00:15:24;4.00;;;3.47;;
13445;SDS011;6795;51.232;3.764;2023-05-01T00:17:52;5.00;;;3.47;;
13445;SDS011;6795;51.232;3.764;2023-05-01T00:20:21;4.18;;;3.78;;
13445;SDS011;6795;51.232;3.764;2023-05-01T00:22:52;4.70;;;4.30;;
13445;SDS011;6795;51.232;3.764;2023-05-01T00:25:21;6.05;;;4.30;;
13445;SDS011;6795;51.232;3.764;2023-05-01T00:27:49;3.85;;;3.55;;
13445;SDS011;6795;51.232;3.764;2023-05-01T00:30:19;4.35;;;3.28;;
13445;SDS011;6795;51.232;3.764;2023-05-01T00:32:48;4.43;;;3.97;;
13445;SDS011;6795;51.232;3.764;2023-05-01T00:35:16;7.22;;;4.03;;
13445;SDS011;6795;51.232;3.764;2023-05-01T00:37:45;4.28;;;3.88;;
13445;SDS011;6795;51.232;3.764;2023-05-01T00:40:13;4.32;;;4.00;;
13445;SDS011;6795;51.232;3.764;2023-05-01T00:42:41;4.82;;;4.50;;
13445;SDS011;6795;51.232;3.764;2023-05-01T00:45:10;6.20;;;4.90;;
13445;SDS011;6795;51.232;3.764;2023-05-01T00:47:41;6.35;;;4.30;;
13445;SDS011;6795;51.232;3.764;2023-05-01T00:50:09;5.43;;;4.32;;
13445;SDS011;6795;51.232;3.764;2023-05-01T00:52:38;5.25;;;4.85;;
13445;SDS011;6795;51.232;3.764;2023-05-01T00:55:07;4.70;;;4.40;;
13445;SDS011;6795;51.232;3.764;2023-05-01T00:57:36;5.65;;;5.10;;
13445;SDS011;6795;51.232;3.764;2023-05-01T01:00:04;6.85;;;4.97;;
13445;SDS011;6795;51.232;3.764;2023-05-01T01:02:34;6.00;;;4.47;;
13445;SDS011;6795;51.232;3.764;2023-05-01T01:05:04;5.78;;;5.10;;
13445;SDS011;6795;51.232;3.764;2023-05-01T01:07:35;6.03;;;4.75;;
13445;SDS011;6795;51.232;3.764;2023-05-01T01:10:12;7.38;;;4.30;;
13445;SDS011;6795;51.232;3.764;2023-05-01T01:12:47;4.45;;;4.05;;
13445;SDS011;6795;51.232;3.764;2023-05-01T01:15:22;4.78;;;3.83;;
13445;SDS011;6795;51.232;3.764;2023-05-01T01:17:58;3.20;;;2.90;;
13445;SDS011;6795;51.232;3.764;2023-05-01T01:20:36;3.97;;;3.33;;
13445;SDS011;6795;51.232;3.764;2023-05-01T01:29:33;3.05;;;2.72;;
13445;SDS011;6795;51.232;3.764;2023-05-01T01:32:26;3.45;;;3.20;;
13445;SDS011;6795;51.232;3.764;2023-05-01T01:35:05;4.28;;;3.13;;
13445;SDS011;6795;51.232;3.764;2023-05-01T01:37:39;4.53;;;3.17;;
13445;SDS011;6795;51.232;3.764;2023-05-01T01:40:15;3.22;;;2.90;;
13445;SDS011;6795;51.232;3.764;2023-05-01T01:42:50;4.32;;;3.42;;
13445;SDS011;6795;51.232;3.764;2023-05-01T01:45:22;3.50;;;3.20;;
13445;SDS011;6795;51.232;3.764;2023-05-01T01:47:57;3.08;;;2.85;;
13445;SDS011;6795;51.232;3.764;2023-05-01T01:50:28;3.25;;;2.78;;
13445;SDS011;6795;51.232;3.764;2023-05-01T01:52:59;3.42;;;3.25;;
13445;SDS011;6795;51.232;3.764;2023-05-01T01:55:29;5.25;;;3.85;;
13445;SDS011;6795;51.232;3.764;2023-05-01T01:58:00;4.00;;;3.63;;
13445;SDS011;6795;51.232;3.764;2023-05-01T02:00:30;4.38;;;3.55;;
13445;SDS011;6795;51.232;3.764;2023-05-01T02:02:59;4.22;;;3.35;;
13445;SDS011;6795;51.232;3.764;2023-05-01T02:05:30;3.33;;;2.95;;
13445;SDS011;6795;51.232;3.764;2023-05-01T02:08:01;4.10;;;3.15;;
13445;SDS011;6795;51.232;3.764;2023-05-01T02:10:30;3.50;;;3.20;;
13445;SDS011;6795;51.232;3.764;2023-05-01T02:13:00;3.88;;;2.92;;
13445;SDS011;6795;51.232;3.764;2023-05-01T02:15:29;3.83;;;3.50;;
13445;SDS011;6795;51.232;3.764;2023-05-01T02:17:58;3.72;;;3.22;;
13445;SDS011;6795;51.232;3.764;2023-05-01T02:20:32;2.97;;;2.75;;
13445;SDS011;6795;51.232;3.764;2023-05-01T02:23:01;3.15;;;2.60;;
13445;SDS011;6795;51.232;3.764;2023-05-01T02:25:31;3.20;;;2.92;;
13445;SDS011;6795;51.232;3.764;2023-05-01T02:28:02;3.42;;;2.63;;
13445;SDS011;6795;51.232;3.764;2023-05-01T02:30:36;3.85;;;2.65;;
13445;SDS011;6795;51.232;3.764;2023-05-01T02:33:05;3.40;;;2.50;;
13445;SDS011;6795;51.232;3.764;2023-05-01T02:35:39;10.13;;;3.03;;
13445;SDS011;6795;51.232;3.764;2023-05-01T02:38:08;4.20;;;3.60;;
13445;SDS011;6795;51.232;3.764;2023-05-01T02:40:38;3.50;;;2.55;;
13445;SDS011;6795;51.232;3.764;2023-05-01T02:43:09;3.78;;;2.70;;
13445;SDS011;6795;51.232;3.764;2023-05-01T02:45:41;5.07;;;3.20;;
13445;SDS011;6795;51.232;3.764;2023-05-01T02:48:12;4.18;;;3.80;;
13445;SDS011;6795;51.232;3.764;2023-05-01T02:50:45;5.90;;;3.17;;
13445;SDS011;6795;51.232;3.764;2023-05-01T02:53:14;3.88;;;2.03;;
13445;SDS011;6795;51.232;3.764;2023-05-01T02:55:44;3.60;;;2.75;;
13445;SDS011;6795;51.232;3.764;2023-05-01T02:58:15;2.70;;;2.50;;
13445;SDS011;6795;51.232;3.764;2023-05-01T03:00:44;2.72;;;2.08;;
13445;SDS011;6795;51.232;3.764;2023-05-01T03:03:13;4.05;;;2.70;;
13445;SDS011;6795;51.232;3.764;2023-05-01T03:05:42;3.40;;;2.53;;
13445;SDS011;6795;51.232;3.764;2023-05-01T03:08:11;2.90;;;2.75;;
13445;SDS011;6795;51.232;3.764;2023-05-01T03:10:43;3.17;;;2.70;;
13445;SDS011;6795;51.232;3.764;2023-05-01T03:13:12;2.88;;;2.45;;
13445;SDS011;6795;51.232;3.764;2023-05-01T03:15:40;4.70;;;2.95;;
13445;SDS011;6795;51.232;3.764;2023-05-01T03:18:08;2.58;;;2.40;;
13445;SDS011;6795;51.232;3.764;2023-05-01T03:20:37;3.30;;;3.05;;
13445;SDS011;6795;51.232;3.764;2023-05-01T03:23:05;3.75;;;3.40;;
13445;SDS011;6795;51.232;3.764;2023-05-01T03:25:35;4.43;;;2.90;;
13445;SDS011;6795;51.232;3.764;2023-05-01T03:28:04;3.33;;;3.03;;
13445;SDS011;6795;51.232;3.764;2023-05-01T03:30:32;4.30;;;3.08;;
13445;SDS011;6795;51.232;3.764;2023-05-01T03:33:01;6.38;;;3.25;;
13445;SDS011;6795;51.232;3.764;2023-05-01T03:35:30;4.75;;;3.42;;
13445;SDS011;6795;51.232;3.764;2023-05-01T03:37:58;8.20;;;4.10;;
13445;SDS011;6795;51.232;3.764;2023-05-01T03:40:27;4.28;;;3.90;;
13445;SDS011;6795;51.232;3.764;2023-05-01T03:42:56;6.75;;;3.50;;
13445;SDS011;6795;51.232;3.764;2023-05-01T03:45:25;4.25;;;3.70;;
13445;SDS011;6795;51.232;3.764;2023-05-01T03:47:53;5.18;;;4.18;;
13445;SDS011;6795;51.232;3.764;2023-05-01T03:50:22;4.28;;;3.33;;
13445;SDS011;6795;51.232;3.764;2023-05-01T03:52:51;4.63;;;4.10;;
13445;SDS011;6795;51.232;3.764;2023-05-01T03:55:19;4.68;;;4.38;;
13445;SDS011;6795;51.232;3.764;2023-05-01T03:57:47;4.53;;;4.18;;
13445;SDS011;6795;51.232;3.764;2023-05-01T04:00:17;5.22;;;3.88;;
13445;SDS011;6795;51.232;3.764;2023-05-01T04:02:46;5.72;;;4.25;;
13445;SDS011;6795;51.232;3.764;2023-05-01T04:05:15;4.47;;;4.18;;
13445;SDS011;6795;51.232;3.764;2023-05-01T04:07:43;5.75;;;4.03;;
13445;SDS011;6795;51.232;3.764;2023-05-01T04:10:12;6.95;;;4.20;;
13445;SDS011;6795;51.232;3.764;2023-05-01T04:12:40;5.20;;;4.80;;
13445;SDS011;6795;51.232;3.764;2023-05-01T04:15:09;4.40;;;4.10;;
13445;SDS011;6795;51.232;3.764;2023-05-01T04:17:42;4.35;;;4.05;;
13445;SDS011;6795;51.232;3.764;2023-05-01T04:20:11;5.32;;;4.90;;
13445;SDS011;6795;51.232;3.764;2023-05-01T04:22:39;6.00;;;5.15;;
13445;SDS011;6795;51.232;3.764;2023-05-01T04:25:08;5.47;;;5.07;;
13445;SDS011;6795;51.232;3.764;2023-05-01T04:27:36;7.55;;;5.25;;
13445;SDS011;6795;51.232;3.764;2023-05-01T04:30:05;7.00;;;6.30;;
13445;SDS011;6795;51.232;3.764;2023-05-01T04:32:34;5.95;;;5.35;;
13445;SDS011;6795;51.232;3.764;2023-05-01T04:35:05;6.47;;;5.85;;
13445;SDS011;6795;51.232;3.764;2023-05-01T04:37:34;9.00;;;5.85;;
13445;SDS011;6795;51.232;3.764;2023-05-01T04:40:03;5.68;;;5.15;;
13445;SDS011;6795;51.232;3.764;2023-05-01T04:42:35;6.18;;;5.72;;
13445;SDS011;6795;51.232;3.764;2023-05-01T04:45:03;6.20;;;4.93;;
13445;SDS011;6795;51.232;3.764;2023-05-01T04:47:33;6.07;;;5.35;;
13445;SDS011;6795;51.232;3.764;2023-05-01T04:50:01;7.65;;;6.60;;
13445;SDS011;6795;51.232;3.764;2023-05-01T04:52:31;6.38;;;5.95;;
13445;SDS011;6795;51.232;3.764;2023-05-01T04:55:00;7.30;;;6.70;;
13445;SDS011;6795;51.232;3.764;2023-05-01T04:57:29;7.90;;;7.10;;
13445;SDS011;6795;51.232;3.764;2023-05-01T04:59:57;10.43;;;7.15;;
13445;SDS011;6795;51.232;3.764;2023-05-01T05:02:25;7.40;;;6.70;;
13445;SDS011;6795;51.232;3.764;2023-05-01T05:04:54;7.88;;;7.05;;
13445;SDS011;6795;51.232;3.764;2023-05-01T05:07:23;8.27;;;7.20;;
13445;SDS011;6795;51.232;3.764;2023-05-01T05:09:52;8.05;;;7.30;;
13445;SDS011;6795;51.232;3.764;2023-05-01T05:12:21;9.20;;;7.05;;
13445;SDS011;6795;51.232;3.764;2023-05-01T05:14:50;7.78;;;6.15;;
13445;SDS011;6795;51.232;3.764;2023-05-01T05:17:18;9.48;;;7.20;;
13445;SDS011;6795;51.232;3.764;2023-05-01T05:19:47;7.95;;;7.10;;
13445;SDS011;6795;51.232;3.764;2023-05-01T05:22:15;9.95;;;7.93;;
13445;SDS011;6795;51.232;3.764;2023-05-01T05:24:43;8.95;;;8.02;;
13445;SDS011;6795;51.232;3.764;2023-05-01T05:27:13;9.52;;;7.38;;
13445;SDS011;6795;51.232;3.764;2023-05-01T05:29:42;14.25;;;7.72;;
13445;SDS011;6795;51.232;3.764;2023-05-01T05:32:10;10.38;;;8.30;;
13445;SDS011;6795;51.232;3.764;2023-05-01T05:34:38;8.60;;;7.63;;
13445;SDS011;6795;51.232;3.764;2023-05-01T05:37:07;12.43;;;8.05;;
13445;SDS011;6795;51.232;3.764;2023-05-01T05:39:36;9.05;;;7.63;;
13445;SDS011;6795;51.232;3.764;2023-05-01T05:42:05;9.82;;;7.53;;
13445;SDS011;6795;51.232;3.764;2023-05-01T05:44:35;12.35;;;8.85;;
13445;SDS011;6795;51.232;3.764;2023-05-01T05:47:04;13.73;;;8.70;;
13445;SDS011;6795;51.232;3.764;2023-05-01T05:49:33;10.00;;;9.00;;
13445;SDS011;6795;51.232;3.764;2023-05-01T05:52:01;9.70;;;8.70;;
13445;SDS011;6795;51.232;3.764;2023-05-01T05:54:30;9.68;;;7.95;;
13445;SDS011;6795;51.232;3.764;2023-05-01T05:56:58;9.35;;;8.32;;
13445;SDS011;6795;51.232;3.764;2023-05-01T05:59:28;10.20;;;9.27;;
13445;SDS011;6795;51.232;3.764;2023-05-01T06:01:57;10.73;;;9.73;;
13445;SDS011;6795;51.232;3.764;2023-05-01T06:04:26;10.77;;;9.65;;
13445;SDS011;6795;51.232;3.764;2023-05-01T06:06:55;10.85;;;9.27;;
13445;SDS011;6795;51.232;3.764;2023-05-01T06:09:23;14.55;;;11.13;;
13445;SDS011;6795;51.232;3.764;2023-05-01T06:11:52;11.63;;;10.57;;
13445;SDS011;6795;51.232;3.764;2023-05-01T06:14:21;12.50;;;11.20;;
13445;SDS011;6795;51.232;3.764;2023-05-01T06:16:49;17.90;;;14.57;;
13445;SDS011;6795;51.232;3.764;2023-05-01T06:19:19;18.48;;;16.08;;
13445;SDS011;6795;51.232;3.764;2023-05-01T06:21:47;19.75;;;17.25;;
13445;SDS011;6795;51.232;3.764;2023-05-01T06:24:16;21.88;;;18.77;;
13445;SDS011;6795;51.232;3.764;2023-05-01T06:26:44;23.15;;;19.13;;
13445;SDS011;6795;51.232;3.764;2023-05-01T06:29:13;32.65;;;22.30;;
13445;SDS011;6795;51.232;3.764;2023-05-01T06:31:41;30.00;;;22.92;;
13445;SDS011;6795;51.232;3.764;2023-05-01T06:34:10;26.73;;;23.83;;
13445;SDS011;6795;51.232;3.764;2023-05-01T06:36:40;30.95;;;23.58;;
13445;SDS011;6795;51.232;3.764;2023-05-01T06:39:09;30.92;;;23.85;;
13445;SDS011;6795;51.232;3.764;2023-05-01T06:41:37;31.27;;;24.60;;
13445;SDS011;6795;51.232;3.764;2023-05-01T06:44:06;29.75;;;24.17;;
13445;SDS011;6795;51.232;3.764;2023-05-01T06:46:34;35.83;;;26.23;;
13445;SDS011;6795;51.232;3.764;2023-05-01T06:49:03;35.10;;;26.60;;
13445;SDS011;6795;51.232;3.764;2023-05-01T06:51:32;38.83;;;29.30;;
13445;SDS011;6795;51.232;3.764;2023-05-01T06:54:02;42.13;;;29.85;;
13445;SDS011;6795;51.232;3.764;2023-05-01T06:56:30;40.45;;;29.50;;
13445;SDS011;6795;51.232;3.764;2023-05-01T06:58:58;42.15;;;30.40;;
13445;SDS011;6795;51.232;3.764;2023-05-01T07:01:27;40.25;;;29.30;;
13445;SDS011;6795;51.232;3.764;2023-05-01T07:03:59;41.00;;;28.58;;
13445;SDS011;6795;51.232;3.764;2023-05-01T07:06:29;44.78;;;30.90;;
13445;SDS011;6795;51.232;3.764;2023-05-01T07:08:59;39.55;;;28.48;;
13445;SDS011;6795;51.232;3.764;2023-05-01T07:11:28;41.03;;;29.92;;
13445;SDS011;6795;51.232;3.764;2023-05-01T07:13:57;37.88;;;27.33;;
13445;SDS011;6795;51.232;3.764;2023-05-01T07:16:26;42.03;;;29.33;;
13445;SDS011;6795;51.232;3.764;2023-05-01T07:18:55;36.65;;;29.35;;
13445;SDS011;6795;51.232;3.764;2023-05-01T07:21:23;36.85;;;28.98;;
13445;SDS011;6795;51.232;3.764;2023-05-01T07:23:51;38.65;;;27.98;;
13445;SDS011;6795;51.232;3.764;2023-05-01T07:26:20;38.85;;;27.65;;
13445;SDS011;6795;51.232;3.764;2023-05-01T07:28:50;37.42;;;26.73;;
13445;SDS011;6795;51.232;3.764;2023-05-01T07:31:19;34.78;;;26.70;;
13445;SDS011;6795;51.232;3.764;2023-05-01T07:33:48;33.25;;;24.92;;
13445;SDS011;6795;51.232;3.764;2023-05-01T07:36:19;37.15;;;25.00;;
13445;SDS011;6795;51.232;3.764;2023-05-01T07:38:48;35.17;;;25.33;;
13445;SDS011;6795;51.232;3.764;2023-05-01T07:41:16;32.95;;;25.67;;
13445;SDS011;6795;51.232;3.764;2023-05-01T07:43:44;36.45;;;25.65;;
13445;SDS011;6795;51.232;3.764;2023-05-01T07:46:14;31.88;;;24.65;;
13445;SDS011;6795;51.232;3.764;2023-05-01T07:48:43;28.30;;;23.52;;
13445;SDS011;6795;51.232;3.764;2023-05-01T07:51:11;27.65;;;23.00;;
13445;SDS011;6795;51.232;3.764;2023-05-01T07:53:40;30.85;;;25.85;;
13445;SDS011;6795;51.232;3.764;2023-05-01T07:56:08;29.73;;;23.35;;
13445;SDS011;6795;51.232;3.764;2023-05-01T07:58:37;30.48;;;23.65;;
13445;SDS011;6795;51.232;3.764;2023-05-01T08:01:06;27.08;;;22.80;;
13445;SDS011;6795;51.232;3.764;2023-05-01T08:03:37;25.20;;;21.40;;
13445;SDS011;6795;51.232;3.764;2023-05-01T08:06:05;27.08;;;21.10;;
13445;SDS011;6795;51.232;3.764;2023-05-01T08:08:34;24.73;;;21.40;;
13445;SDS011;6795;51.232;3.764;2023-05-01T08:11:02;24.08;;;20.77;;
13445;SDS011;6795;51.232;3.764;2023-05-01T08:13:31;22.73;;;20.25;;
13445;SDS011;6795;51.232;3.764;2023-05-01T08:16:00;23.88;;;20.45;;
13445;SDS011;6795;51.232;3.764;2023-05-01T08:18:29;23.30;;;20.73;;
13445;SDS011;6795;51.232;3.764;2023-05-01T08:20:59;20.85;;;18.50;;
13445;SDS011;6795;51.232;3.764;2023-05-01T08:23:27;23.98;;;19.13;;
13445;SDS011;6795;51.232;3.764;2023-05-01T08:25:56;24.25;;;19.73;;
13445;SDS011;6795;51.232;3.764;2023-05-01T08:28:24;21.00;;;18.75;;
13445;SDS011;6795;51.232;3.764;2023-05-01T08:30:53;18.00;;;16.17;;
13445;SDS011;6795;51.232;3.764;2023-05-01T08:33:21;17.92;;;16.02;;
13445;SDS011;6795;51.232;3.764;2023-05-01T08:35:50;18.98;;;14.32;;
13445;SDS011;6795;51.232;3.764;2023-05-01T08:38:20;13.55;;;12.25;;
13445;SDS011;6795;51.232;3.764;2023-05-01T08:40:50;12.18;;;10.90;;
13445;SDS011;6795;51.232;3.764;2023-05-01T08:43:21;16.42;;;11.35;;
13445;SDS011;6795;51.232;3.764;2023-05-01T08:45:50;12.68;;;10.60;;
13445;SDS011;6795;51.232;3.764;2023-05-01T08:48:22;10.90;;;9.80;;
13445;SDS011;6795;51.232;3.764;2023-05-01T08:50:53;12.05;;;9.35;;
13445;SDS011;6795;51.232;3.764;2023-05-01T08:53:26;11.82;;;9.80;;
13445;SDS011;6795;51.232;3.764;2023-05-01T08:55:58;10.40;;;8.77;;
13445;SDS011;6795;51.232;3.764;2023-05-01T08:58:28;13.32;;;9.48;;
13445;SDS011;6795;51.232;3.764;2023-05-01T09:00:57;10.02;;;9.02;;
13445;SDS011;6795;51.232;3.764;2023-05-01T09:03:26;10.57;;;9.48;;
13445;SDS011;6795;51.232;3.764;2023-05-01T09:05:58;10.57;;;9.48;;
13445;SDS011;6795;51.232;3.764;2023-05-01T09:08:30;10.88;;;9.77;;
13445;SDS011;6795;51.232;3.764;2023-05-01T09:10:59;12.82;;;10.65;;
13445;SDS011;6795;51.232;3.764;2023-05-01T09:13:29;11.23;;;9.13;;
13445;SDS011;6795;51.232;3.764;2023-05-01T09:15:58;11.25;;;10.10;;
13445;SDS011;6795;51.232;3.764;2023-05-01T09:18:27;11.20;;;9.50;;
13445;SDS011;6795;51.232;3.764;2023-05-01T09:20:56;9.77;;;8.73;;
13445;SDS011;6795;51.232;3.764;2023-05-01T09:23:25;10.07;;;9.07;;
13445;SDS011;6795;51.232;3.764;2023-05-01T09:25:55;10.95;;;9.95;;
13445;SDS011;6795;51.232;3.764;2023-05-01T09:28:38;8.40;;;7.60;;
13445;SDS011;6795;51.232;3.764;2023-05-01T09:31:20;9.20;;;6.93;;
13445;SDS011;6795;51.232;3.764;2023-05-01T09:33:50;9.13;;;7.90;;
13445;SDS011;6795;51.232;3.764;2023-05-01T09:36:21;8.55;;;7.63;;
13445;SDS011;6795;51.232;3.764;2023-05-01T09:38:50;9.18;;;7.65;;
13445;SDS011;6795;51.232;3.764;2023-05-01T09:41:21;9.57;;;8.57;;
13445;SDS011;6795;51.232;3.764;2023-05-01T09:43:51;10.18;;;9.18;;
13445;SDS011;6795;51.232;3.764;2023-05-01T09:46:20;11.32;;;10.15;;
13445;SDS011;6795;51.232;3.764;2023-05-01T09:48:53;12.65;;;10.38;;
13445;SDS011;6795;51.232;3.764;2023-05-01T09:51:23;11.32;;;9.40;;
13445;SDS011;6795;51.232;3.764;2023-05-01T09:53:53;9.57;;;8.30;;
13445;SDS011;6795;51.232;3.764;2023-05-01T09:56:25;10.57;;;8.18;;
13445;SDS011;6795;51.232;3.764;2023-05-01T09:58:54;10.05;;;8.68;;
13445;SDS011;6795;51.232;3.764;2023-05-01T10:01:37;9.60;;;8.32;;
13445;SDS011;6795;51.232;3.764;2023-05-01T10:04:06;10.95;;;9.75;;
13445;SDS011;6795;51.232;3.764;2023-05-01T10:06:36;9.65;;;8.75;;
13445;SDS011;6795;51.232;3.764;2023-05-01T10:09:05;9.70;;;8.60;;
13445;SDS011;6795;51.232;3.764;2023-05-01T10:11:50;10.23;;;9.23;;
13445;SDS011;6795;51.232;3.764;2023-05-01T10:14:21;12.52;;;8.43;;
13445;SDS011;6795;51.232;3.764;2023-05-01T10:16:52;10.30;;;9.07;;
13445;SDS011;6795;51.232;3.764;2023-05-01T10:19:23;11.07;;;8.52;;
13445;SDS011;6795;51.232;3.764;2023-05-01T10:21:51;12.98;;;9.10;;
13445;SDS011;6795;51.232;3.764;2023-05-01T10:24:20;8.75;;;7.95;;
13445;SDS011;6795;51.232;3.764;2023-05-01T10:26:50;11.57;;;9.95;;
13445;SDS011;6795;51.232;3.764;2023-05-01T10:29:20;10.02;;;9.02;;
13445;SDS011;6795;51.232;3.764;2023-05-01T10:31:51;10.88;;;9.70;;
13445;SDS011;6795;51.232;3.764;2023-05-01T10:34:19;12.15;;;9.85;;
13445;SDS011;6795;51.232;3.764;2023-05-01T10:36:54;13.73;;;11.88;;
13445;SDS011;6795;51.232;3.764;2023-05-01T10:39:28;14.40;;;11.52;;
13445;SDS011;6795;51.232;3.764;2023-05-01T10:42:05;13.40;;;11.20;;
13445;SDS011;6795;51.232;3.764;2023-05-01T10:44:37;12.57;;;10.50;;
13445;SDS011;6795;51.232;3.764;2023-05-01T10:50:11;12.68;;;11.45;;
13445;SDS011;6795;51.232;3.764;2023-05-01T10:55:44;12.13;;;10.80;;
13445;SDS011;6795;51.232;3.764;2023-05-01T11:01:28;12.60;;;11.30;;
13445;SDS011;6795;51.232;3.764;2023-05-01T11:03:59;11.65;;;10.27;;
13445;SDS011;6795;51.232;3.764;2023-05-01T11:06:29;11.98;;;10.75;;
13445;SDS011;6795;51.232;3.764;2023-05-01T11:08:58;11.60;;;10.48;;
13445;SDS011;6795;51.232;3.764;2023-05-01T11:14:15;11.40;;;10.20;;
13445;SDS011;6795;51.232;3.764;2023-05-01T11:16:46;11.52;;;9.98;;
13445;SDS011;6795;51.232;3.764;2023-05-01T11:22:13;14.23;;;11.18;;
13445;SDS011;6795;51.232;3.764;2023-05-01T11:24:41;16.00;;;10.90;;
13445;SDS011;6795;51.232;3.764;2023-05-01T11:27:13;11.82;;;10.48;;
13445;SDS011;6795;51.232;3.764;2023-05-01T11:29:44;12.27;;;11.07;;
13445;SDS011;6795;51.232;3.764;2023-05-01T11:32:21;12.73;;;10.27;;
13445;SDS011;6795;51.232;3.764;2023-05-01T11:34:52;11.93;;;10.73;;
13445;SDS011;6795;51.232;3.764;2023-05-01T11:40:17;15.98;;;12.57;;
13445;SDS011;6795;51.232;3.764;2023-05-01T11:42:49;14.63;;;12.90;;
13445;SDS011;6795;51.232;3.764;2023-05-01T11:45:18;12.95;;;11.52;;
13445;SDS011;6795;51.232;3.764;2023-05-01T11:47:49;14.32;;;11.93;;
13445;SDS011;6795;51.232;3.764;2023-05-01T11:50:18;12.38;;;11.18;;
13445;SDS011;6795;51.232;3.764;2023-05-01T11:52:48;14.95;;;13.35;;
13445;SDS011;6795;51.232;3.764;2023-05-01T11:55:19;13.50;;;12.05;;
13445;SDS011;6795;51.232;3.764;2023-05-01T11:57:48;14.93;;;12.82;;
13445;SDS011;6795;51.232;3.764;2023-05-01T12:00:25;15.27;;;12.77;;
13445;SDS011;6795;51.232;3.764;2023-05-01T12:02:57;16.50;;;14.23;;
13445;SDS011;6795;51.232;3.764;2023-05-01T12:05:29;14.93;;;13.50;;
13445;SDS011;6795;51.232;3.764;2023-05-01T12:08:07;15.73;;;13.90;;
13445;SDS011;6795;51.232;3.764;2023-05-01T12:10:37;18.27;;;16.08;;
13445;SDS011;6795;51.232;3.764;2023-05-01T12:13:07;18.65;;;16.73;;
13445;SDS011;6795;51.232;3.764;2023-05-01T12:15:37;20.77;;;17.00;;
13445;SDS011;6795;51.232;3.764;2023-05-01T12:18:08;19.08;;;17.17;;
13445;SDS011;6795;51.232;3.764;2023-05-01T12:20:39;19.15;;;15.55;;
13445;SDS011;6795;51.232;3.764;2023-05-01T12:23:09;19.42;;;16.70;;
13445;SDS011;6795;51.232;3.764;2023-05-01T12:25:39;18.13;;;15.32;;
13445;SDS011;6795;51.232;3.764;2023-05-01T12:28:08;17.10;;;15.35;;
13445;SDS011;6795;51.232;3.764;2023-05-01T12:30:38;17.23;;;14.40;;
13445;SDS011;6795;51.232;3.764;2023-05-01T12:33:12;20.00;;;15.90;;
13445;SDS011;6795;51.232;3.764;2023-05-01T12:35:41;17.15;;;14.38;;
13445;SDS011;6795;51.232;3.764;2023-05-01T12:38:13;17.77;;;15.85;;
13445;SDS011;6795;51.232;3.764;2023-05-01T12:40:49;16.85;;;15.15;;
13445;SDS011;6795;51.232;3.764;2023-05-01T12:43:19;17.38;;;15.52;;
13445;SDS011;6795;51.232;3.764;2023-05-01T12:45:50;16.33;;;14.50;;
13445;SDS011;6795;51.232;3.764;2023-05-01T12:48:20;17.77;;;14.77;;
13445;SDS011;6795;51.232;3.764;2023-05-01T12:50:50;16.50;;;14.57;;
13445;SDS011;6795;51.232;3.764;2023-05-01T12:53:20;17.13;;;15.23;;
13445;SDS011;6795;51.232;3.764;2023-05-01T12:55:50;20.23;;;15.85;;
13445;SDS011;6795;51.232;3.764;2023-05-01T12:58:19;18.10;;;16.25;;
13445;SDS011;6795;51.232;3.764;2023-05-01T13:00:48;19.52;;;17.42;;
13445;SDS011;6795;51.232;3.764;2023-05-01T13:03:22;17.50;;;15.57;;
13445;SDS011;6795;51.232;3.764;2023-05-01T13:05:52;16.45;;;14.75;;
13445;SDS011;6795;51.232;3.764;2023-05-01T13:08:25;13.63;;;12.23;;
13445;SDS011;6795;51.232;3.764;2023-05-01T13:10:56;16.55;;;14.20;;
13445;SDS011;6795;51.232;3.764;2023-05-01T13:13:26;14.52;;;13.00;;
13445;SDS011;6795;51.232;3.764;2023-05-01T13:16:02;13.93;;;12.13;;
13445;SDS011;6795;51.232;3.764;2023-05-01T13:18:33;14.82;;;13.18;;
13445;SDS011;6795;51.232;3.764;2023-05-01T13:24:37;15.05;;;11.93;;
13445;SDS011;6795;51.232;3.764;2023-05-01T13:28:19;18.80;;;16.40;;
13445;SDS011;6795;51.232;3.764;2023-05-01T13:30:48;17.60;;;15.43;;
13445;SDS011;6795;51.232;3.764;2023-05-01T13:33:16;19.23;;;17.35;;
13445;SDS011;6795;51.232;3.764;2023-05-01T13:35:46;21.17;;;19.00;;
13445;SDS011;6795;51.232;3.764;2023-05-01T13:38:14;22.15;;;19.98;;
13445;SDS011;6795;51.232;3.764;2023-05-01T13:40:48;24.15;;;21.60;;
13445;SDS011;6795;51.232;3.764;2023-05-01T13:43:17;22.85;;;20.45;;
13445;SDS011;6795;51.232;3.764;2023-05-01T13:45:47;23.92;;;20.48;;
13445;SDS011;6795;51.232;3.764;2023-05-01T13:48:16;24.17;;;21.63;;
13445;SDS011;6795;51.232;3.764;2023-05-01T13:50:46;27.50;;;18.63;;
13445;SDS011;6795;51.232;3.764;2023-05-01T13:53:15;23.65;;;20.60;;
13445;SDS011;6795;51.232;3.764;2023-05-01T13:55:43;23.30;;;20.65;;
13445;SDS011;6795;51.232;3.764;2023-05-01T13:58:11;21.35;;;19.05;;
13445;SDS011;6795;51.232;3.764;2023-05-01T14:00:40;19.27;;;17.27;;
13445;SDS011;6795;51.232;3.764;2023-05-01T14:03:11;19.52;;;16.48;;
13445;SDS011;6795;51.232;3.764;2023-05-01T14:05:44;19.10;;;15.77;;
13445;SDS011;6795;51.232;3.764;2023-05-01T14:08:15;19.40;;;17.02;;
13445;SDS011;6795;51.232;3.764;2023-05-01T14:10:47;19.23;;;15.88;;
13445;SDS011;6795;51.232;3.764;2023-05-01T14:13:15;19.13;;;16.17;;
13445;SDS011;6795;51.232;3.764;2023-05-01T14:15:44;17.30;;;15.15;;
13445;SDS011;6795;51.232;3.764;2023-05-01T14:18:15;11.10;;;10.00;;
13445;SDS011;6795;51.232;3.764;2023-05-01T14:20:44;14.32;;;10.43;;
13445;SDS011;6795;51.232;3.764;2023-05-01T14:23:15;15.30;;;11.30;;
13445;SDS011;6795;51.232;3.764;2023-05-01T14:25:47;13.55;;;11.98;;
13445;SDS011;6795;51.232;3.764;2023-05-01T14:28:16;14.65;;;12.55;;
13445;SDS011;6795;51.232;3.764;2023-05-01T14:30:44;13.23;;;11.82;;
13445;SDS011;6795;51.232;3.764;2023-05-01T14:33:14;13.65;;;12.10;;
13445;SDS011;6795;51.232;3.764;2023-05-01T14:35:46;14.10;;;12.32;;
13445;SDS011;6795;51.232;3.764;2023-05-01T14:38:18;16.35;;;12.50;;
13445;SDS011;6795;51.232;3.764;2023-05-01T14:40:47;16.90;;;13.48;;
13445;SDS011;6795;51.232;3.764;2023-05-01T14:43:16;13.63;;;9.02;;
13445;SDS011;6795;51.232;3.764;2023-05-01T14:45:45;11.18;;;10.07;;
13445;SDS011;6795;51.232;3.764;2023-05-01T14:48:19;15.85;;;10.52;;
13445;SDS011;6795;51.232;3.764;2023-05-01T14:50:48;11.93;;;10.50;;
13445;SDS011;6795;51.232;3.764;2023-05-01T14:53:17;14.85;;;10.02;;
13445;SDS011;6795;51.232;3.764;2023-05-01T14:55:47;16.85;;;9.02;;
13445;SDS011;6795;51.232;3.764;2023-05-01T14:58:18;11.60;;;9.40;;
13445;SDS011;6795;51.232;3.764;2023-05-01T15:00:47;11.77;;;8.40;;
13445;SDS011;6795;51.232;3.764;2023-05-01T15:03:15;10.82;;;9.70;;
13445;SDS011;6795;51.232;3.764;2023-05-01T15:05:44;11.77;;;9.80;;
13445;SDS011;6795;51.232;3.764;2023-05-01T15:08:12;11.68;;;8.15;;
13445;SDS011;6795;51.232;3.764;2023-05-01T15:10:42;16.95;;;10.68;;
13445;SDS011;6795;51.232;3.764;2023-05-01T15:13:10;9.48;;;7.45;;
13445;SDS011;6795;51.232;3.764;2023-05-01T15:15:39;9.35;;;7.32;;
13445;SDS011;6795;51.232;3.764;2023-05-01T15:18:07;8.77;;;5.88;;
13445;SDS011;6795;51.232;3.764;2023-05-01T15:20:35;9.18;;;7.05;;
13445;SDS011;6795;51.232;3.764;2023-05-01T15:23:04;6.88;;;4.53;;
13445;SDS011;6795;51.232;3.764;2023-05-01T15:25:32;6.30;;;5.15;;
13445;SDS011;6795;51.232;3.764;2023-05-01T15:28:02;7.53;;;4.63;;
13445;SDS011;6795;51.232;3.764;2023-05-01T15:30:31;6.15;;;4.97;;
13445;SDS011;6795;51.232;3.764;2023-05-01T15:32:59;6.55;;;5.05;;